Terminal Aerodrome Forecast
Issued by NWS

Home | Current Version | Previous Version | Graphics & Text | Print | Product List | Glossary On
Versions: 1 2 3 4 5 6 7 8 9 10 11 12 13 14 15 16 17 18 19 20 21 22
000
FTUS43 KBIS 212300
TAFMOT
TAF
KMOT 212322Z 2200/2224 07011KT P6SM VCTS BKN070 OVC100CB
      TEMPO 2200/2201 -SHRA SCT020 OVC080
     FM220100 01011KT P6SM VCSH BKN100 OVC150
     FM220300 36009KT P6SM SCT015 BKN090
     FM220600 35007KT P6SM VCFG BKN011 BKN025
     FM221400 03006KT P6SM SCT050=

USA.gov is the U.S. government's official web portal to all federal, state and local government web resources and services.